sensor_id;sensor_type;location;lat;lon;timestamp;temperature;humidity
10873;DHT22;34586;53.616;10.032;2024-02-15T00:00:18;11.40;99.90
10873;DHT22;34586;53.616;10.032;2024-02-15T00:02:44;11.30;99.90
10873;DHT22;34586;53.616;10.032;2024-02-15T00:05:11;11.30;99.90
10873;DHT22;34586;53.616;10.032;2024-02-15T00:07:37;11.30;99.90
10873;DHT22;34586;53.616;10.032;2024-02-15T00:10:03;11.20;99.90
10873;DHT22;34586;53.616;10.032;2024-02-15T00:12:30;11.30;99.90
10873;DHT22;34586;53.616;10.032;2024-02-15T00:14:55;11.30;99.90
10873;DHT22;34586;53.616;10.032;2024-02-15T00:17:34;11.30;99.90
10873;DHT22;34586;53.616;10.032;2024-02-15T00:20:02;11.30;99.90
10873;DHT22;34586;53.616;10.032;2024-02-15T00:22:29;11.30;99.90
10873;DHT22;34586;53.616;10.032;2024-02-15T00:24:55;11.30;99.90
10873;DHT22;34586;53.616;10.032;2024-02-15T00:27:20;11.30;99.90
10873;DHT22;34586;53.616;10.032;2024-02-15T00:29:46;11.30;99.90
10873;DHT22;34586;53.616;10.032;2024-02-15T00:32:12;11.20;99.90
10873;DHT22;34586;53.616;10.032;2024-02-15T00:34:37;11.30;99.90
10873;DHT22;34586;53.616;10.032;2024-02-15T00:37:06;11.30;99.90
10873;DHT22;34586;53.616;10.032;2024-02-15T00:39:32;11.30;99.90
10873;DHT22;34586;53.616;10.032;2024-02-15T00:41:58;11.30;99.90
10873;DHT22;34586;53.616;10.032;2024-02-15T00:44:26;11.30;99.90
10873;DHT22;34586;53.616;10.032;2024-02-15T00:46:52;11.30;99.90
10873;DHT22;34586;53.616;10.032;2024-02-15T00:49:18;11.40;99.90
10873;DHT22;34586;53.616;10.032;2024-02-15T00:51:46;11.30;99.90
10873;DHT22;34586;53.616;10.032;2024-02-15T00:54:12;11.30;99.90
10873;DHT22;34586;53.616;10.032;2024-02-15T00:56:37;11.30;99.90
10873;DHT22;34586;53.616;10.032;2024-02-15T00:59:03;11.30;99.90
10873;DHT22;34586;53.616;10.032;2024-02-15T01:01:30;11.40;99.90
10873;DHT22;34586;53.616;10.032;2024-02-15T01:03:56;11.40;99.90
10873;DHT22;34586;53.616;10.032;2024-02-15T01:06:22;11.30;99.90
10873;DHT22;34586;53.616;10.032;2024-02-15T01:08:47;11.30;99.90
10873;DHT22;34586;53.616;10.032;2024-02-15T01:11:13;11.40;99.90
10873;DHT22;34586;53.616;10.032;2024-02-15T01:13:39;11.40;99.90
10873;DHT22;34586;53.616;10.032;2024-02-15T01:16:05;11.40;99.90
10873;DHT22;34586;53.616;10.032;2024-02-15T01:18:30;11.40;99.90
10873;DHT22;34586;53.616;10.032;2024-02-15T01:20:57;11.40;99.90
10873;DHT22;34586;53.616;10.032;2024-02-15T01:23:23;11.30;99.90
10873;DHT22;34586;53.616;10.032;2024-02-15T01:25:48;11.40;99.90
10873;DHT22;34586;53.616;10.032;2024-02-15T01:28:14;11.40;99.90
10873;DHT22;34586;53.616;10.032;2024-02-15T01:30:40;11.40;99.90
10873;DHT22;34586;53.616;10.032;2024-02-15T01:33:09;11.40;99.90
10873;DHT22;34586;53.616;10.032;2024-02-15T01:35:36;11.30;99.90
10873;DHT22;34586;53.616;10.032;2024-02-15T01:38:02;11.30;99.90
10873;DHT22;34586;53.616;10.032;2024-02-15T01:40:28;11.40;99.90
10873;DHT22;34586;53.616;10.032;2024-02-15T01:42:53;11.40;99.90
10873;DHT22;34586;53.616;10.032;2024-02-15T01:45:19;11.40;99.90
10873;DHT22;34586;53.616;10.032;2024-02-15T01:47:45;11.40;99.90
10873;DHT22;34586;53.616;10.032;2024-02-15T01:50:12;11.40;99.90
10873;DHT22;34586;53.616;10.032;2024-02-15T01:52:39;11.40;99.90
10873;DHT22;34586;53.616;10.032;2024-02-15T01:55:06;11.40;99.90
10873;DHT22;34586;53.616;10.032;2024-02-15T01:57:36;11.40;99.90
10873;DHT22;34586;53.616;10.032;2024-02-15T02:00:06;11.40;99.90
10873;DHT22;34586;53.616;10.032;2024-02-15T02:02:34;11.40;99.90
10873;DHT22;34586;53.616;10.032;2024-02-15T02:05:01;11.40;99.90
10873;DHT22;34586;53.616;10.032;2024-02-15T02:07:27;11.50;99.90
10873;DHT22;34586;53.616;10.032;2024-02-15T02:09:53;11.50;99.90
10873;DHT22;34586;53.616;10.032;2024-02-15T02:12:19;11.40;99.90
10873;DHT22;34586;53.616;10.032;2024-02-15T02:14:44;11.40;99.90
10873;DHT22;34586;53.616;10.032;2024-02-15T02:17:14;11.40;99.90
10873;DHT22;34586;53.616;10.032;2024-02-15T02:19:41;11.40;99.90
10873;DHT22;34586;53.616;10.032;2024-02-15T02:22:09;11.50;99.90
10873;DHT22;34586;53.616;10.032;2024-02-15T02:25:23;11.40;99.90
10873;DHT22;34586;53.616;10.032;2024-02-15T02:27:26;11.50;99.90
10873;DHT22;34586;53.616;10.032;2024-02-15T02:29:56;11.50;99.90
10873;DHT22;34586;53.616;10.032;2024-02-15T02:32:25;11.40;99.90
10873;DHT22;34586;53.616;10.032;2024-02-15T02:34:51;11.40;99.90
10873;DHT22;34586;53.616;10.032;2024-02-15T02:37:17;11.50;99.90
10873;DHT22;34586;53.616;10.032;2024-02-15T02:39:43;11.40;99.90
10873;DHT22;34586;53.616;10.032;2024-02-15T02:42:09;11.40;99.90
10873;DHT22;34586;53.616;10.032;2024-02-15T02:44:35;11.40;99.90
10873;DHT22;34586;53.616;10.032;2024-02-15T02:47:01;11.40;99.90
10873;DHT22;34586;53.616;10.032;2024-02-15T02:49:26;11.50;99.90
10873;DHT22;34586;53.616;10.032;2024-02-15T02:51:52;11.50;99.90
10873;DHT22;34586;53.616;10.032;2024-02-15T02:54:18;11.40;99.90
10873;DHT22;34586;53.616;10.032;2024-02-15T02:56:43;11.50;99.90
10873;DHT22;34586;53.616;10.032;2024-02-15T02:59:10;11.50;99.90
10873;DHT22;34586;53.616;10.032;2024-02-15T03:01:36;11.50;99.90
10873;DHT22;34586;53.616;10.032;2024-02-15T03:04:02;11.40;99.90
10873;DHT22;34586;53.616;10.032;2024-02-15T03:06:28;11.40;99.90
10873;DHT22;34586;53.616;10.032;2024-02-15T03:08:53;11.40;99.90
10873;DHT22;34586;53.616;10.032;2024-02-15T03:11:23;11.40;99.90
10873;DHT22;34586;53.616;10.032;2024-02-15T03:13:48;11.40;99.90
10873;DHT22;34586;53.616;10.032;2024-02-15T03:16:14;11.40;99.90
10873;DHT22;34586;53.616;10.032;2024-02-15T03:18:40;11.40;99.90
10873;DHT22;34586;53.616;10.032;2024-02-15T03:21:06;11.50;99.90
10873;DHT22;34586;53.616;10.032;2024-02-15T03:23:36;11.40;99.90
10873;DHT22;34586;53.616;10.032;2024-02-15T03:26:07;11.50;99.90
10873;DHT22;34586;53.616;10.032;2024-02-15T03:28:33;11.50;99.90
10873;DHT22;34586;53.616;10.032;2024-02-15T03:30:59;11.50;99.90
10873;DHT22;34586;53.616;10.032;2024-02-15T03:33:26;11.60;99.90
10873;DHT22;34586;53.616;10.032;2024-02-15T03:35:52;11.60;99.90
10873;DHT22;34586;53.616;10.032;2024-02-15T03:38:17;11.60;99.90
10873;DHT22;34586;53.616;10.032;2024-02-15T03:40:43;11.60;99.90
10873;DHT22;34586;53.616;10.032;2024-02-15T03:43:09;11.50;99.90
10873;DHT22;34586;53.616;10.032;2024-02-15T03:45:34;11.60;99.90
10873;DHT22;34586;53.616;10.032;2024-02-15T03:48:00;11.60;99.90
10873;DHT22;34586;53.616;10.032;2024-02-15T03:50:26;11.60;99.90
10873;DHT22;34586;53.616;10.032;2024-02-15T03:52:51;11.60;99.90
10873;DHT22;34586;53.616;10.032;2024-02-15T03:55:17;11.60;99.90
10873;DHT22;34586;53.616;10.032;2024-02-15T03:57:43;11.60;99.90
10873;DHT22;34586;53.616;10.032;2024-02-15T04:00:12;11.60;99.90
10873;DHT22;34586;53.616;10.032;2024-02-15T04:02:46;11.60;99.90
10873;DHT22;34586;53.616;10.032;2024-02-15T04:05:13;11.60;99.90
10873;DHT22;34586;53.616;10.032;2024-02-15T04:07:38;11.60;99.90
10873;DHT22;34586;53.616;10.032;2024-02-15T04:10:04;11.70;99.90
10873;DHT22;34586;53.616;10.032;2024-02-15T04:12:31;11.60;99.90
10873;DHT22;34586;53.616;10.032;2024-02-15T04:14:57;11.60;99.90
10873;DHT22;34586;53.616;10.032;2024-02-15T04:17:30;11.60;99.90
10873;DHT22;34586;53.616;10.032;2024-02-15T04:19:58;11.60;99.90
10873;DHT22;34586;53.616;10.032;2024-02-15T04:22:24;11.60;99.90
10873;DHT22;34586;53.616;10.032;2024-02-15T04:24:49;11.70;99.90
10873;DHT22;34586;53.616;10.032;2024-02-15T04:27:15;11.70;99.90
10873;DHT22;34586;53.616;10.032;2024-02-15T04:29:41;11.60;99.90
10873;DHT22;34586;53.616;10.032;2024-02-15T04:32:12;11.60;99.90
10873;DHT22;34586;53.616;10.032;2024-02-15T04:34:39;11.60;99.90
10873;DHT22;34586;53.616;10.032;2024-02-15T04:37:05;11.70;99.90
10873;DHT22;34586;53.616;10.032;2024-02-15T04:39:34;11.70;99.90
10873;DHT22;34586;53.616;10.032;2024-02-15T04:42:01;11.70;99.90
10873;DHT22;34586;53.616;10.032;2024-02-15T04:44:27;11.70;99.90
10873;DHT22;34586;53.616;10.032;2024-02-15T04:46:53;11.70;99.90
10873;DHT22;34586;53.616;10.032;2024-02-15T04:49:19;11.70;99.90
10873;DHT22;34586;53.616;10.032;2024-02-15T04:51:45;11.70;99.90
10873;DHT22;34586;53.616;10.032;2024-02-15T04:54:12;11.70;99.90
10873;DHT22;34586;53.616;10.032;2024-02-15T04:56:41;11.70;99.90
10873;DHT22;34586;53.616;10.032;2024-02-15T04:59:08;11.70;99.90
10873;DHT22;34586;53.616;10.032;2024-02-15T05:01:34;11.70;99.90
10873;DHT22;34586;53.616;10.032;2024-02-15T05:04:01;11.70;99.90
10873;DHT22;34586;53.616;10.032;2024-02-15T05:06:31;11.70;99.90
10873;DHT22;34586;53.616;10.032;2024-02-15T05:08:57;11.80;99.90
10873;DHT22;34586;53.616;10.032;2024-02-15T05:11:25;11.70;99.90
10873;DHT22;34586;53.616;10.032;2024-02-15T05:13:51;11.70;99.90
10873;DHT22;34586;53.616;10.032;2024-02-15T05:16:17;11.80;99.90
10873;DHT22;34586;53.616;10.032;2024-02-15T05:18:43;11.80;99.90
10873;DHT22;34586;53.616;10.032;2024-02-15T05:21:08;11.70;99.90
10873;DHT22;34586;53.616;10.032;2024-02-15T05:23:38;11.70;99.90
10873;DHT22;34586;53.616;10.032;2024-02-15T05:26:08;11.70;99.90
10873;DHT22;34586;53.616;10.032;2024-02-15T05:28:34;11.70;99.90
10873;DHT22;34586;53.616;10.032;2024-02-15T05:31:14;11.80;99.90
10873;DHT22;34586;53.616;10.032;2024-02-15T05:33:49;11.80;99.90
10873;DHT22;34586;53.616;10.032;2024-02-15T05:36:17;11.80;99.90
10873;DHT22;34586;53.616;10.032;2024-02-15T05:38:47;11.70;99.90
10873;DHT22;34586;53.616;10.032;2024-02-15T05:41:14;11.70;99.90
10873;DHT22;34586;53.616;10.032;2024-02-15T05:43:40;11.70;99.90
10873;DHT22;34586;53.616;10.032;2024-02-15T05:46:09;11.70;99.90
10873;DHT22;34586;53.616;10.032;2024-02-15T05:48:36;11.70;99.90
10873;DHT22;34586;53.616;10.032;2024-02-15T05:51:03;11.70;99.90
10873;DHT22;34586;53.616;10.032;2024-02-15T05:53:29;11.70;99.90
10873;DHT22;34586;53.616;10.032;2024-02-15T05:55:55;11.70;99.90
10873;DHT22;34586;53.616;10.032;2024-02-15T05:58:21;11.70;99.90
10873;DHT22;34586;53.616;10.032;2024-02-15T06:00:46;11.70;99.90
10873;DHT22;34586;53.616;10.032;2024-02-15T06:03:19;11.80;99.90
10873;DHT22;34586;53.616;10.032;2024-02-15T06:05:51;11.80;99.90
10873;DHT22;34586;53.616;10.032;2024-02-15T06:08:17;11.80;99.90
10873;DHT22;34586;53.616;10.032;2024-02-15T06:10:45;11.80;99.90
10873;DHT22;34586;53.616;10.032;2024-02-15T06:13:12;11.70;99.90
10873;DHT22;34586;53.616;10.032;2024-02-15T06:15:38;11.70;99.90
10873;DHT22;34586;53.616;10.032;2024-02-15T06:18:03;11.70;99.90
10873;DHT22;34586;53.616;10.032;2024-02-15T06:20:34;11.70;99.90
10873;DHT22;34586;53.616;10.032;2024-02-15T06:23:00;11.70;99.90
10873;DHT22;34586;53.616;10.032;2024-02-15T06:25:31;11.70;99.90
10873;DHT22;34586;53.616;10.032;2024-02-15T06:27:57;11.70;99.90
10873;DHT22;34586;53.616;10.032;2024-02-15T06:30:30;11.70;99.90
10873;DHT22;34586;53.616;10.032;2024-02-15T06:33:14;11.70;99.90
10873;DHT22;34586;53.616;10.032;2024-02-15T06:35:58;11.70;99.90
10873;DHT22;34586;53.616;10.032;2024-02-15T06:38:43;11.70;99.90
10873;DHT22;34586;53.616;10.032;2024-02-15T06:41:26;11.70;99.90
10873;DHT22;34586;53.616;10.032;2024-02-15T06:43:53;11.70;99.90
10873;DHT22;34586;53.616;10.032;2024-02-15T06:46:19;11.70;99.90
10873;DHT22;34586;53.616;10.032;2024-02-15T06:48:45;11.70;99.90
10873;DHT22;34586;53.616;10.032;2024-02-15T06:51:13;11.80;99.90
10873;DHT22;34586;53.616;10.032;2024-02-15T06:53:40;11.80;99.90
10873;DHT22;34586;53.616;10.032;2024-02-15T06:56:08;11.80;99.90
10873;DHT22;34586;53.616;10.032;2024-02-15T06:58:35;11.80;99.90
10873;DHT22;34586;53.616;10.032;2024-02-15T07:01:00;11.80;99.90
10873;DHT22;34586;53.616;10.032;2024-02-15T07:03:28;11.80;99.90
10873;DHT22;34586;53.616;10.032;2024-02-15T07:05:55;11.70;99.90
10873;DHT22;34586;53.616;10.032;2024-02-15T07:08:21;11.80;99.90
10873;DHT22;34586;53.616;10.032;2024-02-15T07:10:50;11.80;99.90
10873;DHT22;34586;53.616;10.032;2024-02-15T07:13:17;11.80;99.90
10873;DHT22;34586;53.616;10.032;2024-02-15T07:15:43;11.90;99.90
10873;DHT22;34586;53.616;10.032;2024-02-15T07:18:09;11.90;99.90
10873;DHT22;34586;53.616;10.032;2024-02-15T07:20:37;12.00;99.90
10873;DHT22;34586;53.616;10.032;2024-02-15T07:23:03;11.90;99.90
10873;DHT22;34586;53.616;10.032;2024-02-15T07:25:29;11.90;99.90
10873;DHT22;34586;53.616;10.032;2024-02-15T07:27:55;11.80;99.90
10873;DHT22;34586;53.616;10.032;2024-02-15T07:30:22;11.90;99.90
10873;DHT22;34586;53.616;10.032;2024-02-15T07:32:48;11.90;99.90
10873;DHT22;34586;53.616;10.032;2024-02-15T07:35:14;11.90;99.90
10873;DHT22;34586;53.616;10.032;2024-02-15T07:37:51;11.90;99.90
10873;DHT22;34586;53.616;10.032;2024-02-15T07:40:18;12.00;99.90
10873;DHT22;34586;53.616;10.032;2024-02-15T07:42:44;12.00;99.90
10873;DHT22;34586;53.616;10.032;2024-02-15T07:45:10;11.90;99.90
10873;DHT22;34586;53.616;10.032;2024-02-15T07:47:36;12.00;99.90
10873;DHT22;34586;53.616;10.032;2024-02-15T07:50:02;12.00;99.90
10873;DHT22;34586;53.616;10.032;2024-02-15T07:52:28;12.00;99.90
10873;DHT22;34586;53.616;10.032;2024-02-15T07:54:54;12.00;99.90
10873;DHT22;34586;53.616;10.032;2024-02-15T07:57:20;12.00;99.90
10873;DHT22;34586;53.616;10.032;2024-02-15T07:59:46;12.10;99.90
10873;DHT22;34586;53.616;10.032;2024-02-15T08:02:13;12.10;99.90
10873;DHT22;34586;53.616;10.032;2024-02-15T08:04:42;12.10;99.90
10873;DHT22;34586;53.616;10.032;2024-02-15T08:07:09;12.10;99.90
10873;DHT22;34586;53.616;10.032;2024-02-15T08:09:37;12.10;99.90
10873;DHT22;34586;53.616;10.032;2024-02-15T08:12:03;12.10;99.90
10873;DHT22;34586;53.616;10.032;2024-02-15T08:14:28;12.00;99.90
10873;DHT22;34586;53.616;10.032;2024-02-15T08:16:54;12.10;99.90
10873;DHT22;34586;53.616;10.032;2024-02-15T08:19:21;12.10;99.90
10873;DHT22;34586;53.616;10.032;2024-02-15T08:21:48;12.10;99.90
10873;DHT22;34586;53.616;10.032;2024-02-15T08:24:16;12.10;99.90
10873;DHT22;34586;53.616;10.032;2024-02-15T08:26:42;12.10;99.90
10873;DHT22;34586;53.616;10.032;2024-02-15T08:29:08;12.10;99.90
10873;DHT22;34586;53.616;10.032;2024-02-15T08:31:35;12.20;99.90
10873;DHT22;34586;53.616;10.032;2024-02-15T08:34:02;12.10;99.90
10873;DHT22;34586;53.616;10.032;2024-02-15T08:36:29;12.10;99.90
10873;DHT22;34586;53.616;10.032;2024-02-15T08:38:55;12.10;99.90
10873;DHT22;34586;53.616;10.032;2024-02-15T08:41:21;12.10;99.90
10873;DHT22;34586;53.616;10.032;2024-02-15T08:43:52;12.10;99.90
10873;DHT22;34586;53.616;10.032;2024-02-15T08:46:18;12.20;99.90
10873;DHT22;34586;53.616;10.032;2024-02-15T08:48:45;12.20;99.90
10873;DHT22;34586;53.616;10.032;2024-02-15T08:51:11;12.20;99.90
10873;DHT22;34586;53.616;10.032;2024-02-15T08:53:37;12.30;99.90
10873;DHT22;34586;53.616;10.032;2024-02-15T08:56:04;12.30;99.90
10873;DHT22;34586;53.616;10.032;2024-02-15T08:58:29;12.40;99.90
10873;DHT22;34586;53.616;10.032;2024-02-15T09:00:56;12.50;99.90
10873;DHT22;34586;53.616;10.032;2024-02-15T09:03:22;12.50;99.90
10873;DHT22;34586;53.616;10.032;2024-02-15T09:05:48;12.60;99.90
10873;DHT22;34586;53.616;10.032;2024-02-15T09:08:13;12.50;99.90
10873;DHT22;34586;53.616;10.032;2024-02-15T09:10:41;12.50;99.90
10873;DHT22;34586;53.616;10.032;2024-02-15T09:13:08;12.50;99.90
10873;DHT22;34586;53.616;10.032;2024-02-15T09:15:34;12.50;99.90
10873;DHT22;34586;53.616;10.032;2024-02-15T09:18:01;12.50;99.90
10873;DHT22;34586;53.616;10.032;2024-02-15T09:20:26;12.60;99.90
10873;DHT22;34586;53.616;10.032;2024-02-15T09:22:54;12.50;99.90
10873;DHT22;34586;53.616;10.032;2024-02-15T09:25:21;12.60;99.90
10873;DHT22;34586;53.616;10.032;2024-02-15T09:27:49;12.70;99.90
10873;DHT22;34586;53.616;10.032;2024-02-15T09:30:16;12.70;99.90
10873;DHT22;34586;53.616;10.032;2024-02-15T09:32:42;12.70;99.90
10873;DHT22;34586;53.616;10.032;2024-02-15T09:35:09;12.80;99.90
10873;DHT22;34586;53.616;10.032;2024-02-15T09:37:36;12.80;99.90
10873;DHT22;34586;53.616;10.032;2024-02-15T09:40:07;12.90;99.90
10873;DHT22;34586;53.616;10.032;2024-02-15T09:42:35;12.90;99.90
10873;DHT22;34586;53.616;10.032;2024-02-15T09:45:01;13.00;99.90
10873;DHT22;34586;53.616;10.032;2024-02-15T09:47:36;13.00;99.90
10873;DHT22;34586;53.616;10.032;2024-02-15T09:50:06;13.00;99.90
10873;DHT22;34586;53.616;10.032;2024-02-15T09:52:32;13.00;99.90
10873;DHT22;34586;53.616;10.032;2024-02-15T09:55:02;13.00;99.90
10873;DHT22;34586;53.616;10.032;2024-02-15T09:57:29;13.00;99.90
10873;DHT22;34586;53.616;10.032;2024-02-15T09:59:57;13.00;99.90
10873;DHT22;34586;53.616;10.032;2024-02-15T10:02:24;13.00;99.90
10873;DHT22;34586;53.616;10.032;2024-02-15T10:04:53;13.00;99.90
10873;DHT22;34586;53.616;10.032;2024-02-15T10:07:24;13.00;99.90
10873;DHT22;34586;53.616;10.032;2024-02-15T10:09:50;13.00;99.90
10873;DHT22;34586;53.616;10.032;2024-02-15T10:12:17;13.00;99.90
10873;DHT22;34586;53.616;10.032;2024-02-15T10:14:48;13.00;99.90
10873;DHT22;34586;53.616;10.032;2024-02-15T10:17:20;13.00;99.90
10873;DHT22;34586;53.616;10.032;2024-02-15T10:20:03;13.00;99.90
10873;DHT22;34586;53.616;10.032;2024-02-15T10:22:29;13.00;99.90
10873;DHT22;34586;53.616;10.032;2024-02-15T10:25:12;13.00;99.90
10873;DHT22;34586;53.616;10.032;2024-02-15T10:27:39;13.00;99.90
10873;DHT22;34586;53.616;10.032;2024-02-15T10:30:17;13.00;99.90
10873;DHT22;34586;53.616;10.032;2024-02-15T10:32:44;12.90;99.90
10873;DHT22;34586;53.616;10.032;2024-02-15T10:35:10;13.00;99.90
10873;DHT22;34586;53.616;10.032;2024-02-15T10:37:41;13.00;99.90
10873;DHT22;34586;53.616;10.032;2024-02-15T10:40:07;13.10;99.90
10873;DHT22;34586;53.616;10.032;2024-02-15T10:42:35;13.10;99.90
10873;DHT22;34586;53.616;10.032;2024-02-15T10:45:05;13.20;99.90
10873;DHT22;34586;53.616;10.032;2024-02-15T10:47:37;13.20;99.90
10873;DHT22;34586;53.616;10.032;2024-02-15T10:50:03;13.30;99.90
10873;DHT22;34586;53.616;10.032;2024-02-15T10:52:31;13.30;99.90
10873;DHT22;34586;53.616;10.032;2024-02-15T10:55:04;13.30;99.90
10873;DHT22;34586;53.616;10.032;2024-02-15T10:57:37;13.30;99.90
10873;DHT22;34586;53.616;10.032;2024-02-15T11:00:03;13.30;99.90
10873;DHT22;34586;53.616;10.032;2024-02-15T11:02:45;13.30;99.90
10873;DHT22;34586;53.616;10.032;2024-02-15T11:05:14;13.30;99.90
10873;DHT22;34586;53.616;10.032;2024-02-15T11:07:46;13.30;99.90
10873;DHT22;34586;53.616;10.032;2024-02-15T11:10:11;13.30;99.90
10873;DHT22;34586;53.616;10.032;2024-02-15T11:12:42;13.30;99.90
10873;DHT22;34586;53.616;10.032;2024-02-15T11:15:09;13.40;99.90
10873;DHT22;34586;53.616;10.032;2024-02-15T11:20:08;13.40;99.90
10873;DHT22;34586;53.616;10.032;2024-02-15T11:22:35;13.40;99.90
10873;DHT22;34586;53.616;10.032;2024-02-15T11:25:05;13.30;99.90
10873;DHT22;34586;53.616;10.032;2024-02-15T11:27:35;13.30;99.90
10873;DHT22;34586;53.616;10.032;2024-02-15T11:30:03;13.30;99.90
10873;DHT22;34586;53.616;10.032;2024-02-15T11:32:50;13.30;99.90
10873;DHT22;34586;53.616;10.032;2024-02-15T11:35:24;13.40;99.90
10873;DHT22;34586;53.616;10.032;2024-02-15T11:46:11;13.20;99.90
10873;DHT22;34586;53.616;10.032;2024-02-15T11:48:38;13.20;99.90
10873;DHT22;34586;53.616;10.032;2024-02-15T11:51:07;13.20;99.90
10873;DHT22;34586;53.616;10.032;2024-02-15T11:53:39;13.10;99.90
10873;DHT22;34586;53.616;10.032;2024-02-15T11:56:05;13.10;99.90
10873;DHT22;34586;53.616;10.032;2024-02-15T11:58:31;13.00;99.90
10873;DHT22;34586;53.616;10.032;2024-02-15T12:01:17;13.00;99.90
10873;DHT22;34586;53.616;10.032;2024-02-15T12:04:02;13.00;99.90
10873;DHT22;34586;53.616;10.032;2024-02-15T12:06:46;13.00;99.90
10873;DHT22;34586;53.616;10.032;2024-02-15T12:09:32;13.00;99.90
10873;DHT22;34586;53.616;10.032;2024-02-15T12:12:16;13.00;99.90
10873;DHT22;34586;53.616;10.032;2024-02-15T12:15:03;12.90;99.90
10873;DHT22;34586;53.616;10.032;2024-02-15T12:17:48;12.90;99.90
10873;DHT22;34586;53.616;10.032;2024-02-15T12:20:32;13.00;99.90
10873;DHT22;34586;53.616;10.032;2024-02-15T12:22:59;13.00;99.90
10873;DHT22;34586;53.616;10.032;2024-02-15T12:25:28;13.00;99.90
10873;DHT22;34586;53.616;10.032;2024-02-15T12:27:56;12.90;99.90
10873;DHT22;34586;53.616;10.032;2024-02-15T12:30:22;13.00;99.90
10873;DHT22;34586;53.616;10.032;2024-02-15T12:32:51;13.00;99.90
10873;DHT22;34586;53.616;10.032;2024-02-15T12:35:21;13.00;99.90
10873;DHT22;34586;53.616;10.032;2024-02-15T12:38:01;13.00;99.90
10873;DHT22;34586;53.616;10.032;2024-02-15T12:40:38;13.00;99.90
10873;DHT22;34586;53.616;10.032;2024-02-15T12:43:05;13.00;99.90
10873;DHT22;34586;53.616;10.032;2024-02-15T12:45:32;13.00;99.90
10873;DHT22;34586;53.616;10.032;2024-02-15T12:48:03;13.10;99.90
10873;DHT22;34586;53.616;10.032;2024-02-15T12:50:30;13.00;99.90
10873;DHT22;34586;53.616;10.032;2024-02-15T12:52:56;13.00;99.90
10873;DHT22;34586;53.616;10.032;2024-02-15T12:55:28;13.00;99.90
10873;DHT22;34586;53.616;10.032;2024-02-15T12:57:56;13.00;99.90
10873;DHT22;34586;53.616;10.032;2024-02-15T13:00:26;13.00;99.90
10873;DHT22;34586;53.616;10.032;2024-02-15T13:02:57;13.00;99.90
10873;DHT22;34586;53.616;10.032;2024-02-15T13:05:25;12.90;99.90
10873;DHT22;34586;53.616;10.032;2024-02-15T13:07:54;12.90;99.90
10873;DHT22;34586;53.616;10.032;2024-02-15T13:10:21;12.90;99.90
10873;DHT22;34586;53.616;10.032;2024-02-15T13:12:48;12.90;99.90
10873;DHT22;34586;53.616;10.032;2024-02-15T13:15:14;12.90;99.90
10873;DHT22;34586;53.616;10.032;2024-02-15T13:17:43;12.90;99.90
10873;DHT22;34586;53.616;10.032;2024-02-15T13:20:17;13.00;99.90
10873;DHT22;34586;53.616;10.032;2024-02-15T13:22:46;13.00;99.90
10873;DHT22;34586;53.616;10.032;2024-02-15T13:25:13;12.90;99.90
10873;DHT22;34586;53.616;10.032;2024-02-15T13:27:42;12.90;99.90
10873;DHT22;34586;53.616;10.032;2024-02-15T13:30:09;12.90;99.90
10873;DHT22;34586;53.616;10.032;2024-02-15T13:32:36;12.90;99.90
10873;DHT22;34586;53.616;10.032;2024-02-15T13:35:03;12.90;99.90
10873;DHT22;34586;53.616;10.032;2024-02-15T13:37:33;12.90;99.90
10873;DHT22;34586;53.616;10.032;2024-02-15T13:39:58;12.90;99.90
10873;DHT22;34586;53.616;10.032;2024-02-15T13:42:24;12.90;99.90
10873;DHT22;34586;53.616;10.032;2024-02-15T13:44:50;12.90;99.90
10873;DHT22;34586;53.616;10.032;2024-02-15T13:47:15;12.80;99.90
10873;DHT22;34586;53.616;10.032;2024-02-15T13:49:42;12.80;99.90
10873;DHT22;34586;53.616;10.032;2024-02-15T13:52:08;12.80;99.90
10873;DHT22;34586;53.616;10.032;2024-02-15T13:54:36;12.80;99.90
10873;DHT22;34586;53.616;10.032;2024-02-15T13:57:03;12.80;99.90
10873;DHT22;34586;53.616;10.032;2024-02-15T13:59:29;12.80;99.90
10873;DHT22;34586;53.616;10.032;2024-02-15T14:01:55;12.80;99.90
10873;DHT22;34586;53.616;10.032;2024-02-15T14:04:21;12.80;99.90
10873;DHT22;34586;53.616;10.032;2024-02-15T14:06:47;12.80;99.90
10873;DHT22;34586;53.616;10.032;2024-02-15T14:09:14;12.80;99.90
10873;DHT22;34586;53.616;10.032;2024-02-15T14:11:39;12.80;99.90
10873;DHT22;34586;53.616;10.032;2024-02-15T14:14:08;12.80;99.90
10873;DHT22;34586;53.616;10.032;2024-02-15T14:16:33;12.80;99.90
10873;DHT22;34586;53.616;10.032;2024-02-15T14:18:59;12.80;99.90
10873;DHT22;34586;53.616;10.032;2024-02-15T14:21:25;12.80;99.90
10873;DHT22;34586;53.616;10.032;2024-02-15T14:23:51;12.90;99.90
10873;DHT22;34586;53.616;10.032;2024-02-15T14:26:16;12.90;99.90
10873;DHT22;34586;53.616;10.032;2024-02-15T14:28:43;12.80;99.90
10873;DHT22;34586;53.616;10.032;2024-02-15T14:31:11;12.80;99.90
10873;DHT22;34586;53.616;10.032;2024-02-15T14:33:56;12.80;99.90
10873;DHT22;34586;53.616;10.032;2024-02-15T14:36:21;12.80;99.90
10873;DHT22;34586;53.616;10.032;2024-02-15T14:38:47;12.80;99.90
10873;DHT22;34586;53.616;10.032;2024-02-15T14:41:12;12.80;99.90
10873;DHT22;34586;53.616;10.032;2024-02-15T14:43:39;12.80;99.90
10873;DHT22;34586;53.616;10.032;2024-02-15T14:46:05;12.80;99.90
10873;DHT22;34586;53.616;10.032;2024-02-15T14:48:33;12.90;99.90
10873;DHT22;34586;53.616;10.032;2024-02-15T14:50:59;12.90;99.90
10873;DHT22;34586;53.616;10.032;2024-02-15T14:53:26;12.90;99.90
10873;DHT22;34586;53.616;10.032;2024-02-15T14:55:53;12.90;99.90
10873;DHT22;34586;53.616;10.032;2024-02-15T14:58:20;12.90;99.90
10873;DHT22;34586;53.616;10.032;2024-02-15T15:00:46;12.90;99.90
10873;DHT22;34586;53.616;10.032;2024-02-15T15:03:12;12.90;99.90
10873;DHT22;34586;53.616;10.032;2024-02-15T15:05:41;12.90;99.90
10873;DHT22;34586;53.616;10.032;2024-02-15T15:08:25;12.80;99.90
10873;DHT22;34586;53.616;10.032;2024-02-15T15:11:09;12.80;99.90
10873;DHT22;34586;53.616;10.032;2024-02-15T15:13:53;12.90;99.90
10873;DHT22;34586;53.616;10.032;2024-02-15T15:16:19;12.90;99.90
10873;DHT22;34586;53.616;10.032;2024-02-15T15:18:49;12.80;99.90
10873;DHT22;34586;53.616;10.032;2024-02-15T15:21:18;12.80;99.90
10873;DHT22;34586;53.616;10.032;2024-02-15T15:23:44;12.80;99.90
10873;DHT22;34586;53.616;10.032;2024-02-15T15:26:10;12.80;99.90
10873;DHT22;34586;53.616;10.032;2024-02-15T15:28:39;12.80;99.90
10873;DHT22;34586;53.616;10.032;2024-02-15T15:31:05;12.80;99.90